<?xml version="1.0" encoding="UTF-8" standalone="no" ?>
<gpx version="1.1" creator="Visorando" xmlns:xsi="http://www.w3.org/2001/XMLSchema-instance" xmlns="http://www.topografix.com/GPX/1/1" xsi:schemaLocation="http://www.topografix.com/GPX/1/1 http://www.topografix.com/GPX/1/1/gpx.xsd">
<metadata>
  <name>Randonnée du 29/12/2025 à 08:16</name>
  <link href="https://www.visorando.com/randonnee-89719104/">
    <text>https://www.visorando.com/randonnee-89719104/</text>
  </link>
</metadata><wpt lat="43.334844" lon="-1.667831">
  <ele>48</ele>
  <time>2025-12-29T07:16:14.000Z</time>
  <name>Point de passage 1</name>
  <type>GENERIC</type>
</wpt><wpt lat="43.334837" lon="-1.667829">
  <ele>47</ele>
  <time>2025-12-29T13:16:40.000Z</time>
  <name>Point de passage 2</name>
  <type>GENERIC</type>
</wpt><trk>
  <name>Randonnée du 29/12/2025 à 08:16</name>
  <trkseg>
    <trkpt lat="43.334844" lon="-1.667831">
      <ele>48</ele>
      <time>2025-12-29T07:16:14.000Z</time>
    </trkpt>
    <trkpt lat="43.334624" lon="-1.66774">
      <ele>47</ele>
      <time>2025-12-29T07:20:39.000Z</time>
    </trkpt>
    <trkpt lat="43.334392" lon="-1.667677">
      <ele>49</ele>
      <time>2025-12-29T07:20:58.000Z</time>
    </trkpt>
    <trkpt lat="43.334168" lon="-1.667638">
      <ele>50</ele>
      <time>2025-12-29T07:21:17.000Z</time>
    </trkpt>
    <trkpt lat="43.333945" lon="-1.667694">
      <ele>51</ele>
      <time>2025-12-29T07:21:47.000Z</time>
    </trkpt>
    <trkpt lat="43.333715" lon="-1.667739">
      <ele>53</ele>
      <time>2025-12-29T07:22:06.000Z</time>
    </trkpt>
    <trkpt lat="43.333491" lon="-1.667797">
      <ele>54</ele>
      <time>2025-12-29T07:22:23.000Z</time>
    </trkpt>
    <trkpt lat="43.333269" lon="-1.667856">
      <ele>56</ele>
      <time>2025-12-29T07:22:39.000Z</time>
    </trkpt>
    <trkpt lat="43.333038" lon="-1.667903">
      <ele>55</ele>
      <time>2025-12-29T07:22:57.000Z</time>
    </trkpt>
    <trkpt lat="43.332813" lon="-1.66797">
      <ele>56</ele>
      <time>2025-12-29T07:23:14.000Z</time>
    </trkpt>
    <trkpt lat="43.332595" lon="-1.668077">
      <ele>56</ele>
      <time>2025-12-29T07:23:33.000Z</time>
    </trkpt>
    <trkpt lat="43.332385" lon="-1.66821">
      <ele>58</ele>
      <time>2025-12-29T07:23:56.000Z</time>
    </trkpt>
    <trkpt lat="43.332181" lon="-1.668354">
      <ele>59</ele>
      <time>2025-12-29T07:24:14.000Z</time>
    </trkpt>
    <trkpt lat="43.331973" lon="-1.668496">
      <ele>59</ele>
      <time>2025-12-29T07:24:32.000Z</time>
    </trkpt>
    <trkpt lat="43.331762" lon="-1.668603">
      <ele>59</ele>
      <time>2025-12-29T07:24:50.000Z</time>
    </trkpt>
    <trkpt lat="43.331545" lon="-1.668737">
      <ele>61</ele>
      <time>2025-12-29T07:25:07.000Z</time>
    </trkpt>
    <trkpt lat="43.33133" lon="-1.668878">
      <ele>61</ele>
      <time>2025-12-29T07:25:29.000Z</time>
    </trkpt>
    <trkpt lat="43.331104" lon="-1.668994">
      <ele>61</ele>
      <time>2025-12-29T07:25:48.000Z</time>
    </trkpt>
    <trkpt lat="43.330895" lon="-1.66912">
      <ele>62</ele>
      <time>2025-12-29T07:26:05.000Z</time>
    </trkpt>
    <trkpt lat="43.330682" lon="-1.669246">
      <ele>64</ele>
      <time>2025-12-29T07:26:24.000Z</time>
    </trkpt>
    <trkpt lat="43.330459" lon="-1.669379">
      <ele>66</ele>
      <time>2025-12-29T07:26:43.000Z</time>
    </trkpt>
    <trkpt lat="43.330232" lon="-1.669469">
      <ele>67</ele>
      <time>2025-12-29T07:27:04.000Z</time>
    </trkpt>
    <trkpt lat="43.330006" lon="-1.669529">
      <ele>68</ele>
      <time>2025-12-29T07:27:23.000Z</time>
    </trkpt>
    <trkpt lat="43.329786" lon="-1.669612">
      <ele>67</ele>
      <time>2025-12-29T07:27:45.000Z</time>
    </trkpt>
    <trkpt lat="43.329555" lon="-1.669642">
      <ele>70</ele>
      <time>2025-12-29T07:28:02.000Z</time>
    </trkpt>
    <trkpt lat="43.329326" lon="-1.669695">
      <ele>74</ele>
      <time>2025-12-29T07:28:21.000Z</time>
    </trkpt>
    <trkpt lat="43.329102" lon="-1.66975">
      <ele>77</ele>
      <time>2025-12-29T07:28:40.000Z</time>
    </trkpt>
    <trkpt lat="43.328876" lon="-1.669825">
      <ele>78</ele>
      <time>2025-12-29T07:29:00.000Z</time>
    </trkpt>
    <trkpt lat="43.328661" lon="-1.669945">
      <ele>80</ele>
      <time>2025-12-29T07:29:21.000Z</time>
    </trkpt>
    <trkpt lat="43.328469" lon="-1.67012">
      <ele>82</ele>
      <time>2025-12-29T07:29:43.000Z</time>
    </trkpt>
    <trkpt lat="43.328276" lon="-1.670281">
      <ele>86</ele>
      <time>2025-12-29T07:30:01.000Z</time>
    </trkpt>
    <trkpt lat="43.328059" lon="-1.670383">
      <ele>88</ele>
      <time>2025-12-29T07:30:19.000Z</time>
    </trkpt>
    <trkpt lat="43.327827" lon="-1.670339">
      <ele>88</ele>
      <time>2025-12-29T07:30:36.000Z</time>
    </trkpt>
    <trkpt lat="43.327601" lon="-1.670358">
      <ele>85</ele>
      <time>2025-12-29T07:30:56.000Z</time>
    </trkpt>
    <trkpt lat="43.327377" lon="-1.670323">
      <ele>88</ele>
      <time>2025-12-29T07:31:15.000Z</time>
    </trkpt>
    <trkpt lat="43.327155" lon="-1.670208">
      <ele>87</ele>
      <time>2025-12-29T07:31:32.000Z</time>
    </trkpt>
    <trkpt lat="43.326931" lon="-1.670133">
      <ele>87</ele>
      <time>2025-12-29T07:31:54.000Z</time>
    </trkpt>
    <trkpt lat="43.326702" lon="-1.670109">
      <ele>88</ele>
      <time>2025-12-29T07:32:15.000Z</time>
    </trkpt>
    <trkpt lat="43.326509" lon="-1.669933">
      <ele>86</ele>
      <time>2025-12-29T07:32:36.000Z</time>
    </trkpt>
    <trkpt lat="43.326301" lon="-1.669783">
      <ele>87</ele>
      <time>2025-12-29T07:32:53.000Z</time>
    </trkpt>
    <trkpt lat="43.326074" lon="-1.669722">
      <ele>89</ele>
      <time>2025-12-29T07:33:11.000Z</time>
    </trkpt>
    <trkpt lat="43.325859" lon="-1.669832">
      <ele>92</ele>
      <time>2025-12-29T07:33:28.000Z</time>
    </trkpt>
    <trkpt lat="43.325696" lon="-1.670051">
      <ele>95</ele>
      <time>2025-12-29T07:33:46.000Z</time>
    </trkpt>
    <trkpt lat="43.325533" lon="-1.670276">
      <ele>98</ele>
      <time>2025-12-29T07:34:04.000Z</time>
    </trkpt>
    <trkpt lat="43.325355" lon="-1.670488">
      <ele>97</ele>
      <time>2025-12-29T07:34:25.000Z</time>
    </trkpt>
    <trkpt lat="43.325212" lon="-1.670729">
      <ele>95</ele>
      <time>2025-12-29T07:34:47.000Z</time>
    </trkpt>
    <trkpt lat="43.325039" lon="-1.670935">
      <ele>94</ele>
      <time>2025-12-29T07:35:17.000Z</time>
    </trkpt>
    <trkpt lat="43.324856" lon="-1.671116">
      <ele>100</ele>
      <time>2025-12-29T07:35:41.000Z</time>
    </trkpt>
    <trkpt lat="43.324645" lon="-1.671227">
      <ele>105</ele>
      <time>2025-12-29T07:36:06.000Z</time>
    </trkpt>
    <trkpt lat="43.324429" lon="-1.671327">
      <ele>109</ele>
      <time>2025-12-29T07:36:32.000Z</time>
    </trkpt>
    <trkpt lat="43.324204" lon="-1.671295">
      <ele>114</ele>
      <time>2025-12-29T07:36:55.000Z</time>
    </trkpt>
    <trkpt lat="43.323973" lon="-1.671262">
      <ele>112</ele>
      <time>2025-12-29T07:37:22.000Z</time>
    </trkpt>
    <trkpt lat="43.32382" lon="-1.671492">
      <ele>111</ele>
      <time>2025-12-29T07:37:43.000Z</time>
    </trkpt>
    <trkpt lat="43.323665" lon="-1.671724">
      <ele>112</ele>
      <time>2025-12-29T07:38:02.000Z</time>
    </trkpt>
    <trkpt lat="43.32345" lon="-1.671835">
      <ele>111</ele>
      <time>2025-12-29T07:38:22.000Z</time>
    </trkpt>
    <trkpt lat="43.323219" lon="-1.671837">
      <ele>110</ele>
      <time>2025-12-29T07:38:42.000Z</time>
    </trkpt>
    <trkpt lat="43.322994" lon="-1.671879">
      <ele>110</ele>
      <time>2025-12-29T07:39:01.000Z</time>
    </trkpt>
    <trkpt lat="43.322772" lon="-1.671966">
      <ele>110</ele>
      <time>2025-12-29T07:39:20.000Z</time>
    </trkpt>
    <trkpt lat="43.322547" lon="-1.672015">
      <ele>111</ele>
      <time>2025-12-29T07:39:40.000Z</time>
    </trkpt>
    <trkpt lat="43.322312" lon="-1.671965">
      <ele>111</ele>
      <time>2025-12-29T07:39:56.000Z</time>
    </trkpt>
    <trkpt lat="43.322081" lon="-1.67204">
      <ele>110</ele>
      <time>2025-12-29T07:40:19.000Z</time>
    </trkpt>
    <trkpt lat="43.32185" lon="-1.672003">
      <ele>109</ele>
      <time>2025-12-29T07:40:36.000Z</time>
    </trkpt>
    <trkpt lat="43.321614" lon="-1.672021">
      <ele>111</ele>
      <time>2025-12-29T07:40:53.000Z</time>
    </trkpt>
    <trkpt lat="43.321391" lon="-1.671965">
      <ele>114</ele>
      <time>2025-12-29T07:41:11.000Z</time>
    </trkpt>
    <trkpt lat="43.321151" lon="-1.672002">
      <ele>113</ele>
      <time>2025-12-29T07:41:31.000Z</time>
    </trkpt>
    <trkpt lat="43.320949" lon="-1.672148">
      <ele>114</ele>
      <time>2025-12-29T07:41:50.000Z</time>
    </trkpt>
    <trkpt lat="43.320741" lon="-1.672287">
      <ele>114</ele>
      <time>2025-12-29T07:42:09.000Z</time>
    </trkpt>
    <trkpt lat="43.32052" lon="-1.672404">
      <ele>114</ele>
      <time>2025-12-29T07:42:28.000Z</time>
    </trkpt>
    <trkpt lat="43.320326" lon="-1.672565">
      <ele>114</ele>
      <time>2025-12-29T07:42:47.000Z</time>
    </trkpt>
    <trkpt lat="43.320127" lon="-1.672737">
      <ele>117</ele>
      <time>2025-12-29T07:43:07.000Z</time>
    </trkpt>
    <trkpt lat="43.319903" lon="-1.672768">
      <ele>116</ele>
      <time>2025-12-29T07:43:25.000Z</time>
    </trkpt>
    <trkpt lat="43.319677" lon="-1.672818">
      <ele>119</ele>
      <time>2025-12-29T07:43:44.000Z</time>
    </trkpt>
    <trkpt lat="43.319452" lon="-1.672845">
      <ele>118</ele>
      <time>2025-12-29T07:44:03.000Z</time>
    </trkpt>
    <trkpt lat="43.319265" lon="-1.672656">
      <ele>117</ele>
      <time>2025-12-29T07:44:22.000Z</time>
    </trkpt>
    <trkpt lat="43.319094" lon="-1.67286">
      <ele>119</ele>
      <time>2025-12-29T07:45:54.000Z</time>
    </trkpt>
    <trkpt lat="43.319006" lon="-1.67316">
      <ele>118</ele>
      <time>2025-12-29T07:46:15.000Z</time>
    </trkpt>
    <trkpt lat="43.318798" lon="-1.673282">
      <ele>121</ele>
      <time>2025-12-29T07:46:58.000Z</time>
    </trkpt>
    <trkpt lat="43.318686" lon="-1.67301">
      <ele>119</ele>
      <time>2025-12-29T07:47:25.000Z</time>
    </trkpt>
    <trkpt lat="43.318482" lon="-1.672871">
      <ele>117</ele>
      <time>2025-12-29T07:47:49.000Z</time>
    </trkpt>
    <trkpt lat="43.318294" lon="-1.672682">
      <ele>120</ele>
      <time>2025-12-29T07:48:08.000Z</time>
    </trkpt>
    <trkpt lat="43.318104" lon="-1.6725">
      <ele>119</ele>
      <time>2025-12-29T07:48:27.000Z</time>
    </trkpt>
    <trkpt lat="43.317985" lon="-1.672232">
      <ele>119</ele>
      <time>2025-12-29T07:48:45.000Z</time>
    </trkpt>
    <trkpt lat="43.317819" lon="-1.672003">
      <ele>118</ele>
      <time>2025-12-29T07:49:09.000Z</time>
    </trkpt>
    <trkpt lat="43.317697" lon="-1.67174">
      <ele>120</ele>
      <time>2025-12-29T07:49:32.000Z</time>
    </trkpt>
    <trkpt lat="43.317516" lon="-1.671552">
      <ele>121</ele>
      <time>2025-12-29T07:49:53.000Z</time>
    </trkpt>
    <trkpt lat="43.317355" lon="-1.671321">
      <ele>121</ele>
      <time>2025-12-29T07:50:12.000Z</time>
    </trkpt>
    <trkpt lat="43.317246" lon="-1.67104">
      <ele>122</ele>
      <time>2025-12-29T07:50:31.000Z</time>
    </trkpt>
    <trkpt lat="43.317072" lon="-1.670819">
      <ele>121</ele>
      <time>2025-12-29T07:50:52.000Z</time>
    </trkpt>
    <trkpt lat="43.316906" lon="-1.670598">
      <ele>121</ele>
      <time>2025-12-29T07:51:16.000Z</time>
    </trkpt>
    <trkpt lat="43.31677" lon="-1.670344">
      <ele>125</ele>
      <time>2025-12-29T07:51:37.000Z</time>
    </trkpt>
    <trkpt lat="43.316686" lon="-1.670057">
      <ele>123</ele>
      <time>2025-12-29T07:51:59.000Z</time>
    </trkpt>
    <trkpt lat="43.316559" lon="-1.669776">
      <ele>122</ele>
      <time>2025-12-29T07:52:23.000Z</time>
    </trkpt>
    <trkpt lat="43.316409" lon="-1.669526">
      <ele>125</ele>
      <time>2025-12-29T07:52:48.000Z</time>
    </trkpt>
    <trkpt lat="43.316257" lon="-1.669284">
      <ele>127</ele>
      <time>2025-12-29T07:53:12.000Z</time>
    </trkpt>
    <trkpt lat="43.316091" lon="-1.669062">
      <ele>131</ele>
      <time>2025-12-29T07:53:37.000Z</time>
    </trkpt>
    <trkpt lat="43.315891" lon="-1.668896">
      <ele>137</ele>
      <time>2025-12-29T07:53:59.000Z</time>
    </trkpt>
    <trkpt lat="43.3157" lon="-1.668725">
      <ele>135</ele>
      <time>2025-12-29T07:54:22.000Z</time>
    </trkpt>
    <trkpt lat="43.315476" lon="-1.668682">
      <ele>137</ele>
      <time>2025-12-29T07:54:44.000Z</time>
    </trkpt>
    <trkpt lat="43.315305" lon="-1.668476">
      <ele>135</ele>
      <time>2025-12-29T07:55:05.000Z</time>
    </trkpt>
    <trkpt lat="43.315074" lon="-1.668466">
      <ele>134</ele>
      <time>2025-12-29T07:55:26.000Z</time>
    </trkpt>
    <trkpt lat="43.314849" lon="-1.668417">
      <ele>135</ele>
      <time>2025-12-29T07:55:44.000Z</time>
    </trkpt>
    <trkpt lat="43.314627" lon="-1.668474">
      <ele>138</ele>
      <time>2025-12-29T07:57:51.000Z</time>
    </trkpt>
    <trkpt lat="43.314403" lon="-1.668494">
      <ele>138</ele>
      <time>2025-12-29T07:58:23.000Z</time>
    </trkpt>
    <trkpt lat="43.314175" lon="-1.668439">
      <ele>139</ele>
      <time>2025-12-29T07:58:52.000Z</time>
    </trkpt>
    <trkpt lat="43.313955" lon="-1.66835">
      <ele>138</ele>
      <time>2025-12-29T07:59:23.000Z</time>
    </trkpt>
    <trkpt lat="43.313736" lon="-1.668278">
      <ele>142</ele>
      <time>2025-12-29T07:59:51.000Z</time>
    </trkpt>
    <trkpt lat="43.313539" lon="-1.668121">
      <ele>144</ele>
      <time>2025-12-29T08:00:23.000Z</time>
    </trkpt>
    <trkpt lat="43.313717" lon="-1.667929">
      <ele>148</ele>
      <time>2025-12-29T08:04:03.000Z</time>
    </trkpt>
    <trkpt lat="43.313948" lon="-1.66794">
      <ele>153</ele>
      <time>2025-12-29T08:04:28.000Z</time>
    </trkpt>
    <trkpt lat="43.313994" lon="-1.667635">
      <ele>159</ele>
      <time>2025-12-29T08:05:23.000Z</time>
    </trkpt>
    <trkpt lat="43.314" lon="-1.667326">
      <ele>170</ele>
      <time>2025-12-29T08:06:23.000Z</time>
    </trkpt>
    <trkpt lat="43.313796" lon="-1.667172">
      <ele>177</ele>
      <time>2025-12-29T08:06:51.000Z</time>
    </trkpt>
    <trkpt lat="43.3136" lon="-1.667004">
      <ele>178</ele>
      <time>2025-12-29T08:07:19.000Z</time>
    </trkpt>
    <trkpt lat="43.313397" lon="-1.66686">
      <ele>182</ele>
      <time>2025-12-29T08:07:43.000Z</time>
    </trkpt>
    <trkpt lat="43.313624" lon="-1.66683">
      <ele>190</ele>
      <time>2025-12-29T08:08:20.000Z</time>
    </trkpt>
    <trkpt lat="43.313851" lon="-1.666804">
      <ele>192</ele>
      <time>2025-12-29T08:08:44.000Z</time>
    </trkpt>
    <trkpt lat="43.31406" lon="-1.666679">
      <ele>195</ele>
      <time>2025-12-29T08:09:18.000Z</time>
    </trkpt>
    <trkpt lat="43.314289" lon="-1.666604">
      <ele>200</ele>
      <time>2025-12-29T08:09:48.000Z</time>
    </trkpt>
    <trkpt lat="43.31451" lon="-1.666538">
      <ele>200</ele>
      <time>2025-12-29T08:10:12.000Z</time>
    </trkpt>
    <trkpt lat="43.314716" lon="-1.666409">
      <ele>196</ele>
      <time>2025-12-29T08:10:39.000Z</time>
    </trkpt>
    <trkpt lat="43.314891" lon="-1.6662">
      <ele>192</ele>
      <time>2025-12-29T08:11:06.000Z</time>
    </trkpt>
    <trkpt lat="43.315019" lon="-1.665932">
      <ele>192</ele>
      <time>2025-12-29T08:11:27.000Z</time>
    </trkpt>
    <trkpt lat="43.315107" lon="-1.665634">
      <ele>191</ele>
      <time>2025-12-29T08:11:47.000Z</time>
    </trkpt>
    <trkpt lat="43.315191" lon="-1.665335">
      <ele>195</ele>
      <time>2025-12-29T08:12:08.000Z</time>
    </trkpt>
    <trkpt lat="43.315293" lon="-1.665059">
      <ele>194</ele>
      <time>2025-12-29T08:12:26.000Z</time>
    </trkpt>
    <trkpt lat="43.315377" lon="-1.664759">
      <ele>195</ele>
      <time>2025-12-29T08:12:46.000Z</time>
    </trkpt>
    <trkpt lat="43.315448" lon="-1.664452">
      <ele>199</ele>
      <time>2025-12-29T08:13:09.000Z</time>
    </trkpt>
    <trkpt lat="43.315537" lon="-1.664161">
      <ele>199</ele>
      <time>2025-12-29T08:13:33.000Z</time>
    </trkpt>
    <trkpt lat="43.315683" lon="-1.663917">
      <ele>202</ele>
      <time>2025-12-29T08:13:50.000Z</time>
    </trkpt>
    <trkpt lat="43.315853" lon="-1.663701">
      <ele>205</ele>
      <time>2025-12-29T08:14:14.000Z</time>
    </trkpt>
    <trkpt lat="43.315982" lon="-1.663436">
      <ele>209</ele>
      <time>2025-12-29T08:14:40.000Z</time>
    </trkpt>
    <trkpt lat="43.316056" lon="-1.66314">
      <ele>210</ele>
      <time>2025-12-29T08:15:03.000Z</time>
    </trkpt>
    <trkpt lat="43.316112" lon="-1.662825">
      <ele>213</ele>
      <time>2025-12-29T08:15:23.000Z</time>
    </trkpt>
    <trkpt lat="43.316235" lon="-1.662558">
      <ele>216</ele>
      <time>2025-12-29T08:15:43.000Z</time>
    </trkpt>
    <trkpt lat="43.316364" lon="-1.662296">
      <ele>216</ele>
      <time>2025-12-29T08:16:07.000Z</time>
    </trkpt>
    <trkpt lat="43.316476" lon="-1.662026">
      <ele>221</ele>
      <time>2025-12-29T08:16:35.000Z</time>
    </trkpt>
    <trkpt lat="43.316656" lon="-1.66182">
      <ele>225</ele>
      <time>2025-12-29T08:17:00.000Z</time>
    </trkpt>
    <trkpt lat="43.316792" lon="-1.661561">
      <ele>227</ele>
      <time>2025-12-29T08:17:27.000Z</time>
    </trkpt>
    <trkpt lat="43.316854" lon="-1.661265">
      <ele>231</ele>
      <time>2025-12-29T08:17:54.000Z</time>
    </trkpt>
    <trkpt lat="43.316956" lon="-1.660985">
      <ele>236</ele>
      <time>2025-12-29T08:18:15.000Z</time>
    </trkpt>
    <trkpt lat="43.317037" lon="-1.660697">
      <ele>238</ele>
      <time>2025-12-29T08:18:41.000Z</time>
    </trkpt>
    <trkpt lat="43.317125" lon="-1.660407">
      <ele>243</ele>
      <time>2025-12-29T08:19:04.000Z</time>
    </trkpt>
    <trkpt lat="43.317257" lon="-1.660148">
      <ele>243</ele>
      <time>2025-12-29T08:19:29.000Z</time>
    </trkpt>
    <trkpt lat="43.317419" lon="-1.659921">
      <ele>248</ele>
      <time>2025-12-29T08:19:57.000Z</time>
    </trkpt>
    <trkpt lat="43.317534" lon="-1.659651">
      <ele>249</ele>
      <time>2025-12-29T08:20:20.000Z</time>
    </trkpt>
    <trkpt lat="43.317686" lon="-1.65941">
      <ele>254</ele>
      <time>2025-12-29T08:20:46.000Z</time>
    </trkpt>
    <trkpt lat="43.3179" lon="-1.659285">
      <ele>255</ele>
      <time>2025-12-29T08:21:14.000Z</time>
    </trkpt>
    <trkpt lat="43.318062" lon="-1.659069">
      <ele>258</ele>
      <time>2025-12-29T08:21:35.000Z</time>
    </trkpt>
    <trkpt lat="43.318249" lon="-1.658885">
      <ele>262</ele>
      <time>2025-12-29T08:22:00.000Z</time>
    </trkpt>
    <trkpt lat="43.318403" lon="-1.658651">
      <ele>264</ele>
      <time>2025-12-29T08:22:21.000Z</time>
    </trkpt>
    <trkpt lat="43.318482" lon="-1.658356">
      <ele>268</ele>
      <time>2025-12-29T08:22:46.000Z</time>
    </trkpt>
    <trkpt lat="43.318557" lon="-1.658058">
      <ele>270</ele>
      <time>2025-12-29T08:23:10.000Z</time>
    </trkpt>
    <trkpt lat="43.318647" lon="-1.657772">
      <ele>272</ele>
      <time>2025-12-29T08:23:33.000Z</time>
    </trkpt>
    <trkpt lat="43.318497" lon="-1.65754">
      <ele>274</ele>
      <time>2025-12-29T08:30:14.000Z</time>
    </trkpt>
    <trkpt lat="43.318261" lon="-1.657475">
      <ele>280</ele>
      <time>2025-12-29T08:30:50.000Z</time>
    </trkpt>
    <trkpt lat="43.31803" lon="-1.657508">
      <ele>285</ele>
      <time>2025-12-29T08:31:26.000Z</time>
    </trkpt>
    <trkpt lat="43.317803" lon="-1.65752">
      <ele>292</ele>
      <time>2025-12-29T08:32:04.000Z</time>
    </trkpt>
    <trkpt lat="43.317578" lon="-1.657527">
      <ele>300</ele>
      <time>2025-12-29T08:32:38.000Z</time>
    </trkpt>
    <trkpt lat="43.317349" lon="-1.657535">
      <ele>302</ele>
      <time>2025-12-29T08:33:15.000Z</time>
    </trkpt>
    <trkpt lat="43.317127" lon="-1.657588">
      <ele>309</ele>
      <time>2025-12-29T08:33:43.000Z</time>
    </trkpt>
    <trkpt lat="43.316891" lon="-1.657557">
      <ele>315</ele>
      <time>2025-12-29T08:34:14.000Z</time>
    </trkpt>
    <trkpt lat="43.316665" lon="-1.657567">
      <ele>319</ele>
      <time>2025-12-29T08:34:43.000Z</time>
    </trkpt>
    <trkpt lat="43.316441" lon="-1.657647">
      <ele>323</ele>
      <time>2025-12-29T08:35:12.000Z</time>
    </trkpt>
    <trkpt lat="43.316211" lon="-1.657648">
      <ele>331</ele>
      <time>2025-12-29T08:35:53.000Z</time>
    </trkpt>
    <trkpt lat="43.315994" lon="-1.657768">
      <ele>335</ele>
      <time>2025-12-29T08:36:24.000Z</time>
    </trkpt>
    <trkpt lat="43.315779" lon="-1.65788">
      <ele>340</ele>
      <time>2025-12-29T08:36:53.000Z</time>
    </trkpt>
    <trkpt lat="43.315579" lon="-1.658022">
      <ele>342</ele>
      <time>2025-12-29T08:37:18.000Z</time>
    </trkpt>
    <trkpt lat="43.315372" lon="-1.65816">
      <ele>349</ele>
      <time>2025-12-29T08:37:51.000Z</time>
    </trkpt>
    <trkpt lat="43.315162" lon="-1.658307">
      <ele>356</ele>
      <time>2025-12-29T08:38:23.000Z</time>
    </trkpt>
    <trkpt lat="43.314958" lon="-1.65846">
      <ele>362</ele>
      <time>2025-12-29T08:38:52.000Z</time>
    </trkpt>
    <trkpt lat="43.314767" lon="-1.658628">
      <ele>367</ele>
      <time>2025-12-29T08:39:20.000Z</time>
    </trkpt>
    <trkpt lat="43.314576" lon="-1.658797">
      <ele>374</ele>
      <time>2025-12-29T08:39:49.000Z</time>
    </trkpt>
    <trkpt lat="43.314386" lon="-1.65897">
      <ele>378</ele>
      <time>2025-12-29T08:40:15.000Z</time>
    </trkpt>
    <trkpt lat="43.31418" lon="-1.659122">
      <ele>382</ele>
      <time>2025-12-29T08:40:47.000Z</time>
    </trkpt>
    <trkpt lat="43.313976" lon="-1.659271">
      <ele>388</ele>
      <time>2025-12-29T08:41:13.000Z</time>
    </trkpt>
    <trkpt lat="43.313747" lon="-1.659346">
      <ele>397</ele>
      <time>2025-12-29T08:41:47.000Z</time>
    </trkpt>
    <trkpt lat="43.313533" lon="-1.65924">
      <ele>401</ele>
      <time>2025-12-29T08:43:54.000Z</time>
    </trkpt>
    <trkpt lat="43.313479" lon="-1.658933">
      <ele>402</ele>
      <time>2025-12-29T08:46:17.000Z</time>
    </trkpt>
    <trkpt lat="43.313281" lon="-1.658765">
      <ele>409</ele>
      <time>2025-12-29T08:46:44.000Z</time>
    </trkpt>
    <trkpt lat="43.313167" lon="-1.658487">
      <ele>417</ele>
      <time>2025-12-29T08:47:29.000Z</time>
    </trkpt>
    <trkpt lat="43.313056" lon="-1.658213">
      <ele>426</ele>
      <time>2025-12-29T08:48:20.000Z</time>
    </trkpt>
    <trkpt lat="43.312885" lon="-1.65801">
      <ele>438</ele>
      <time>2025-12-29T08:49:00.000Z</time>
    </trkpt>
    <trkpt lat="43.312812" lon="-1.657711">
      <ele>447</ele>
      <time>2025-12-29T08:49:43.000Z</time>
    </trkpt>
    <trkpt lat="43.312692" lon="-1.65745">
      <ele>454</ele>
      <time>2025-12-29T08:50:23.000Z</time>
    </trkpt>
    <trkpt lat="43.312599" lon="-1.657164">
      <ele>466</ele>
      <time>2025-12-29T08:51:03.000Z</time>
    </trkpt>
    <trkpt lat="43.312568" lon="-1.656857">
      <ele>479</ele>
      <time>2025-12-29T08:51:53.000Z</time>
    </trkpt>
    <trkpt lat="43.312582" lon="-1.656545">
      <ele>487</ele>
      <time>2025-12-29T08:52:42.000Z</time>
    </trkpt>
    <trkpt lat="43.312522" lon="-1.656247">
      <ele>500</ele>
      <time>2025-12-29T08:53:35.000Z</time>
    </trkpt>
    <trkpt lat="43.312477" lon="-1.655943">
      <ele>509</ele>
      <time>2025-12-29T08:54:11.000Z</time>
    </trkpt>
    <trkpt lat="43.312393" lon="-1.65565">
      <ele>514</ele>
      <time>2025-12-29T08:57:40.000Z</time>
    </trkpt>
    <trkpt lat="43.312212" lon="-1.655455">
      <ele>520</ele>
      <time>2025-12-29T08:58:37.000Z</time>
    </trkpt>
    <trkpt lat="43.312084" lon="-1.655197">
      <ele>524</ele>
      <time>2025-12-29T08:59:11.000Z</time>
    </trkpt>
    <trkpt lat="43.311913" lon="-1.654973">
      <ele>528</ele>
      <time>2025-12-29T08:59:39.000Z</time>
    </trkpt>
    <trkpt lat="43.311771" lon="-1.654728">
      <ele>531</ele>
      <time>2025-12-29T09:00:08.000Z</time>
    </trkpt>
    <trkpt lat="43.311628" lon="-1.65449">
      <ele>534</ele>
      <time>2025-12-29T09:00:30.000Z</time>
    </trkpt>
    <trkpt lat="43.311496" lon="-1.654222">
      <ele>536</ele>
      <time>2025-12-29T09:00:58.000Z</time>
    </trkpt>
    <trkpt lat="43.311404" lon="-1.65394">
      <ele>535</ele>
      <time>2025-12-29T09:01:19.000Z</time>
    </trkpt>
    <trkpt lat="43.311625" lon="-1.653841">
      <ele>541</ele>
      <time>2025-12-29T09:01:47.000Z</time>
    </trkpt>
    <trkpt lat="43.311821" lon="-1.653994">
      <ele>546</ele>
      <time>2025-12-29T09:02:31.000Z</time>
    </trkpt>
    <trkpt lat="43.312036" lon="-1.65409">
      <ele>555</ele>
      <time>2025-12-29T09:03:16.000Z</time>
    </trkpt>
    <trkpt lat="43.312234" lon="-1.654236">
      <ele>562</ele>
      <time>2025-12-29T09:03:53.000Z</time>
    </trkpt>
    <trkpt lat="43.31203" lon="-1.654098">
      <ele>556</ele>
      <time>2025-12-29T09:08:11.000Z</time>
    </trkpt>
    <trkpt lat="43.311815" lon="-1.654007">
      <ele>547</ele>
      <time>2025-12-29T09:08:37.000Z</time>
    </trkpt>
    <trkpt lat="43.311618" lon="-1.653856">
      <ele>541</ele>
      <time>2025-12-29T09:09:03.000Z</time>
    </trkpt>
    <trkpt lat="43.311399" lon="-1.653765">
      <ele>539</ele>
      <time>2025-12-29T09:09:23.000Z</time>
    </trkpt>
    <trkpt lat="43.311184" lon="-1.653645">
      <ele>541</ele>
      <time>2025-12-29T09:10:02.000Z</time>
    </trkpt>
    <trkpt lat="43.310977" lon="-1.653509">
      <ele>544</ele>
      <time>2025-12-29T09:10:26.000Z</time>
    </trkpt>
    <trkpt lat="43.310763" lon="-1.653378">
      <ele>546</ele>
      <time>2025-12-29T09:10:48.000Z</time>
    </trkpt>
    <trkpt lat="43.310586" lon="-1.653176">
      <ele>549</ele>
      <time>2025-12-29T09:11:10.000Z</time>
    </trkpt>
    <trkpt lat="43.310413" lon="-1.652967">
      <ele>555</ele>
      <time>2025-12-29T09:11:40.000Z</time>
    </trkpt>
    <trkpt lat="43.310241" lon="-1.652768">
      <ele>563</ele>
      <time>2025-12-29T09:12:14.000Z</time>
    </trkpt>
    <trkpt lat="43.310119" lon="-1.652502">
      <ele>572</ele>
      <time>2025-12-29T09:12:55.000Z</time>
    </trkpt>
    <trkpt lat="43.309958" lon="-1.652286">
      <ele>577</ele>
      <time>2025-12-29T09:13:24.000Z</time>
    </trkpt>
    <trkpt lat="43.309746" lon="-1.652178">
      <ele>579</ele>
      <time>2025-12-29T09:13:46.000Z</time>
    </trkpt>
    <trkpt lat="43.309587" lon="-1.651955">
      <ele>580</ele>
      <time>2025-12-29T09:14:05.000Z</time>
    </trkpt>
    <trkpt lat="43.309383" lon="-1.651808">
      <ele>582</ele>
      <time>2025-12-29T09:14:27.000Z</time>
    </trkpt>
    <trkpt lat="43.309335" lon="-1.651496">
      <ele>587</ele>
      <time>2025-12-29T09:14:51.000Z</time>
    </trkpt>
    <trkpt lat="43.309219" lon="-1.651226">
      <ele>590</ele>
      <time>2025-12-29T09:15:16.000Z</time>
    </trkpt>
    <trkpt lat="43.309072" lon="-1.650977">
      <ele>594</ele>
      <time>2025-12-29T09:15:41.000Z</time>
    </trkpt>
    <trkpt lat="43.308879" lon="-1.650809">
      <ele>598</ele>
      <time>2025-12-29T09:16:07.000Z</time>
    </trkpt>
    <trkpt lat="43.308651" lon="-1.650764">
      <ele>599</ele>
      <time>2025-12-29T09:16:41.000Z</time>
    </trkpt>
    <trkpt lat="43.308457" lon="-1.650606">
      <ele>601</ele>
      <time>2025-12-29T09:17:04.000Z</time>
    </trkpt>
    <trkpt lat="43.308261" lon="-1.650441">
      <ele>604</ele>
      <time>2025-12-29T09:17:32.000Z</time>
    </trkpt>
    <trkpt lat="43.308053" lon="-1.650312">
      <ele>605</ele>
      <time>2025-12-29T09:17:55.000Z</time>
    </trkpt>
    <trkpt lat="43.307871" lon="-1.650122">
      <ele>608</ele>
      <time>2025-12-29T09:18:20.000Z</time>
    </trkpt>
    <trkpt lat="43.307667" lon="-1.649988">
      <ele>610</ele>
      <time>2025-12-29T09:18:49.000Z</time>
    </trkpt>
    <trkpt lat="43.307455" lon="-1.649865">
      <ele>609</ele>
      <time>2025-12-29T09:19:16.000Z</time>
    </trkpt>
    <trkpt lat="43.307244" lon="-1.649753">
      <ele>608</ele>
      <time>2025-12-29T09:19:48.000Z</time>
    </trkpt>
    <trkpt lat="43.30702" lon="-1.6497">
      <ele>606</ele>
      <time>2025-12-29T09:22:03.000Z</time>
    </trkpt>
    <trkpt lat="43.306917" lon="-1.64942">
      <ele>617</ele>
      <time>2025-12-29T09:23:07.000Z</time>
    </trkpt>
    <trkpt lat="43.306858" lon="-1.649116">
      <ele>628</ele>
      <time>2025-12-29T09:24:17.000Z</time>
    </trkpt>
    <trkpt lat="43.306933" lon="-1.648824">
      <ele>643</ele>
      <time>2025-12-29T09:25:19.000Z</time>
    </trkpt>
    <trkpt lat="43.306904" lon="-1.648518">
      <ele>649</ele>
      <time>2025-12-29T09:26:01.000Z</time>
    </trkpt>
    <trkpt lat="43.307081" lon="-1.648322">
      <ele>661</ele>
      <time>2025-12-29T09:26:53.000Z</time>
    </trkpt>
    <trkpt lat="43.307266" lon="-1.648141">
      <ele>672</ele>
      <time>2025-12-29T09:27:45.000Z</time>
    </trkpt>
    <trkpt lat="43.307492" lon="-1.64814">
      <ele>681</ele>
      <time>2025-12-29T09:28:33.000Z</time>
    </trkpt>
    <trkpt lat="43.307643" lon="-1.647911">
      <ele>691</ele>
      <time>2025-12-29T09:29:21.000Z</time>
    </trkpt>
    <trkpt lat="43.307866" lon="-1.647966">
      <ele>699</ele>
      <time>2025-12-29T09:29:58.000Z</time>
    </trkpt>
    <trkpt lat="43.307741" lon="-1.647699">
      <ele>700</ele>
      <time>2025-12-29T09:41:38.000Z</time>
    </trkpt>
    <trkpt lat="43.307615" lon="-1.647433">
      <ele>696</ele>
      <time>2025-12-29T09:42:06.000Z</time>
    </trkpt>
    <trkpt lat="43.307461" lon="-1.647191">
      <ele>692</ele>
      <time>2025-12-29T09:42:32.000Z</time>
    </trkpt>
    <trkpt lat="43.307365" lon="-1.64691">
      <ele>689</ele>
      <time>2025-12-29T09:42:54.000Z</time>
    </trkpt>
    <trkpt lat="43.307276" lon="-1.646614">
      <ele>687</ele>
      <time>2025-12-29T09:43:21.000Z</time>
    </trkpt>
    <trkpt lat="43.307179" lon="-1.646328">
      <ele>682</ele>
      <time>2025-12-29T09:43:55.000Z</time>
    </trkpt>
    <trkpt lat="43.307072" lon="-1.646048">
      <ele>677</ele>
      <time>2025-12-29T09:44:16.000Z</time>
    </trkpt>
    <trkpt lat="43.306954" lon="-1.645778">
      <ele>673</ele>
      <time>2025-12-29T09:44:40.000Z</time>
    </trkpt>
    <trkpt lat="43.306876" lon="-1.645477">
      <ele>671</ele>
      <time>2025-12-29T09:45:01.000Z</time>
    </trkpt>
    <trkpt lat="43.306796" lon="-1.645184">
      <ele>668</ele>
      <time>2025-12-29T09:45:19.000Z</time>
    </trkpt>
    <trkpt lat="43.306746" lon="-1.644873">
      <ele>665</ele>
      <time>2025-12-29T09:45:39.000Z</time>
    </trkpt>
    <trkpt lat="43.306707" lon="-1.644562">
      <ele>666</ele>
      <time>2025-12-29T09:45:56.000Z</time>
    </trkpt>
    <trkpt lat="43.306659" lon="-1.644254">
      <ele>667</ele>
      <time>2025-12-29T09:46:15.000Z</time>
    </trkpt>
    <trkpt lat="43.306639" lon="-1.643939">
      <ele>668</ele>
      <time>2025-12-29T09:46:34.000Z</time>
    </trkpt>
    <trkpt lat="43.306588" lon="-1.643635">
      <ele>669</ele>
      <time>2025-12-29T09:46:54.000Z</time>
    </trkpt>
    <trkpt lat="43.306536" lon="-1.643319">
      <ele>670</ele>
      <time>2025-12-29T09:47:15.000Z</time>
    </trkpt>
    <trkpt lat="43.306448" lon="-1.643035">
      <ele>670</ele>
      <time>2025-12-29T09:47:37.000Z</time>
    </trkpt>
    <trkpt lat="43.306448" lon="-1.642719">
      <ele>669</ele>
      <time>2025-12-29T09:47:59.000Z</time>
    </trkpt>
    <trkpt lat="43.306447" lon="-1.642405">
      <ele>669</ele>
      <time>2025-12-29T09:48:20.000Z</time>
    </trkpt>
    <trkpt lat="43.306451" lon="-1.642085">
      <ele>667</ele>
      <time>2025-12-29T09:48:56.000Z</time>
    </trkpt>
    <trkpt lat="43.306436" lon="-1.64177">
      <ele>669</ele>
      <time>2025-12-29T09:49:20.000Z</time>
    </trkpt>
    <trkpt lat="43.306526" lon="-1.641473">
      <ele>671</ele>
      <time>2025-12-29T09:49:41.000Z</time>
    </trkpt>
    <trkpt lat="43.306731" lon="-1.641327">
      <ele>674</ele>
      <time>2025-12-29T09:50:04.000Z</time>
    </trkpt>
    <trkpt lat="43.306962" lon="-1.641274">
      <ele>679</ele>
      <time>2025-12-29T09:50:28.000Z</time>
    </trkpt>
    <trkpt lat="43.30719" lon="-1.641193">
      <ele>678</ele>
      <time>2025-12-29T09:51:32.000Z</time>
    </trkpt>
    <trkpt lat="43.307359" lon="-1.640988">
      <ele>679</ele>
      <time>2025-12-29T09:52:07.000Z</time>
    </trkpt>
    <trkpt lat="43.307576" lon="-1.640863">
      <ele>678</ele>
      <time>2025-12-29T09:52:38.000Z</time>
    </trkpt>
    <trkpt lat="43.307679" lon="-1.640584">
      <ele>681</ele>
      <time>2025-12-29T09:54:45.000Z</time>
    </trkpt>
    <trkpt lat="43.307709" lon="-1.640276">
      <ele>685</ele>
      <time>2025-12-29T09:55:11.000Z</time>
    </trkpt>
    <trkpt lat="43.307776" lon="-1.639973">
      <ele>691</ele>
      <time>2025-12-29T09:55:42.000Z</time>
    </trkpt>
    <trkpt lat="43.307911" lon="-1.639724">
      <ele>701</ele>
      <time>2025-12-29T09:56:26.000Z</time>
    </trkpt>
    <trkpt lat="43.307984" lon="-1.639425">
      <ele>717</ele>
      <time>2025-12-29T09:58:03.000Z</time>
    </trkpt>
    <trkpt lat="43.308069" lon="-1.639133">
      <ele>723</ele>
      <time>2025-12-29T09:58:35.000Z</time>
    </trkpt>
    <trkpt lat="43.308121" lon="-1.638826">
      <ele>732</ele>
      <time>2025-12-29T09:59:15.000Z</time>
    </trkpt>
    <trkpt lat="43.308159" lon="-1.638522">
      <ele>744</ele>
      <time>2025-12-29T10:00:10.000Z</time>
    </trkpt>
    <trkpt lat="43.308312" lon="-1.638293">
      <ele>752</ele>
      <time>2025-12-29T10:00:49.000Z</time>
    </trkpt>
    <trkpt lat="43.308408" lon="-1.638013">
      <ele>761</ele>
      <time>2025-12-29T10:01:32.000Z</time>
    </trkpt>
    <trkpt lat="43.308529" lon="-1.637741">
      <ele>767</ele>
      <time>2025-12-29T10:02:13.000Z</time>
    </trkpt>
    <trkpt lat="43.308658" lon="-1.637488">
      <ele>777</ele>
      <time>2025-12-29T10:03:04.000Z</time>
    </trkpt>
    <trkpt lat="43.308698" lon="-1.637184">
      <ele>790</ele>
      <time>2025-12-29T10:03:57.000Z</time>
    </trkpt>
    <trkpt lat="43.308844" lon="-1.63694">
      <ele>799</ele>
      <time>2025-12-29T10:04:49.000Z</time>
    </trkpt>
    <trkpt lat="43.308972" lon="-1.636679">
      <ele>813</ele>
      <time>2025-12-29T10:05:53.000Z</time>
    </trkpt>
    <trkpt lat="43.309174" lon="-1.636538">
      <ele>831</ele>
      <time>2025-12-29T10:13:22.000Z</time>
    </trkpt>
    <trkpt lat="43.309353" lon="-1.636343">
      <ele>843</ele>
      <time>2025-12-29T10:14:55.000Z</time>
    </trkpt>
    <trkpt lat="43.309315" lon="-1.636032">
      <ele>871</ele>
      <time>2025-12-29T10:19:32.000Z</time>
    </trkpt>
    <trkpt lat="43.309105" lon="-1.63592">
      <ele>882</ele>
      <time>2025-12-29T10:20:50.000Z</time>
    </trkpt>
    <trkpt lat="43.309056" lon="-1.635617">
      <ele>900</ele>
      <time>2025-12-29T10:22:54.000Z</time>
    </trkpt>
    <trkpt lat="43.308918" lon="-1.635357">
      <ele>899</ele>
      <time>2025-12-29T10:27:29.000Z</time>
    </trkpt>
    <trkpt lat="43.308903" lon="-1.635044">
      <ele>896</ele>
      <time>2025-12-29T10:27:54.000Z</time>
    </trkpt>
    <trkpt lat="43.308895" lon="-1.634736">
      <ele>890</ele>
      <time>2025-12-29T10:28:22.000Z</time>
    </trkpt>
    <trkpt lat="43.308892" lon="-1.634416">
      <ele>887</ele>
      <time>2025-12-29T10:28:44.000Z</time>
    </trkpt>
    <trkpt lat="43.308713" lon="-1.634227">
      <ele>886</ele>
      <time>2025-12-29T10:29:04.000Z</time>
    </trkpt>
    <trkpt lat="43.308524" lon="-1.634048">
      <ele>884</ele>
      <time>2025-12-29T10:29:24.000Z</time>
    </trkpt>
    <trkpt lat="43.30834" lon="-1.633865">
      <ele>885</ele>
      <time>2025-12-29T10:29:53.000Z</time>
    </trkpt>
    <trkpt lat="43.308448" lon="-1.634183">
      <ele>882</ele>
      <time>2025-12-29T10:31:25.000Z</time>
    </trkpt>
    <trkpt lat="43.308438" lon="-1.634215">
      <ele>882</ele>
      <time>2025-12-29T10:34:08.000Z</time>
    </trkpt>
    <trkpt lat="43.308441" lon="-1.634201">
      <ele>882</ele>
      <time>2025-12-29T10:46:42.000Z</time>
    </trkpt>
    <trkpt lat="43.308696" lon="-1.634136">
      <ele>881</ele>
      <time>2025-12-29T10:53:14.000Z</time>
    </trkpt>
    <trkpt lat="43.308464" lon="-1.634031">
      <ele>882</ele>
      <time>2025-12-29T10:53:17.000Z</time>
    </trkpt>
    <trkpt lat="43.308655" lon="-1.63386">
      <ele>880</ele>
      <time>2025-12-29T10:54:13.000Z</time>
    </trkpt>
    <trkpt lat="43.308842" lon="-1.634032">
      <ele>879</ele>
      <time>2025-12-29T10:54:34.000Z</time>
    </trkpt>
    <trkpt lat="43.308998" lon="-1.634263">
      <ele>880</ele>
      <time>2025-12-29T10:54:55.000Z</time>
    </trkpt>
    <trkpt lat="43.309223" lon="-1.634277">
      <ele>872</ele>
      <time>2025-12-29T10:55:46.000Z</time>
    </trkpt>
    <trkpt lat="43.309269" lon="-1.634579">
      <ele>878</ele>
      <time>2025-12-29T10:56:21.000Z</time>
    </trkpt>
    <trkpt lat="43.309242" lon="-1.634266">
      <ele>873</ele>
      <time>2025-12-29T10:57:26.000Z</time>
    </trkpt>
    <trkpt lat="43.309249" lon="-1.633945">
      <ele>867</ele>
      <time>2025-12-29T10:57:59.000Z</time>
    </trkpt>
    <trkpt lat="43.309328" lon="-1.633643">
      <ele>859</ele>
      <time>2025-12-29T10:58:40.000Z</time>
    </trkpt>
    <trkpt lat="43.30933" lon="-1.633324">
      <ele>853</ele>
      <time>2025-12-29T10:59:08.000Z</time>
    </trkpt>
    <trkpt lat="43.309407" lon="-1.633023">
      <ele>847</ele>
      <time>2025-12-29T10:59:38.000Z</time>
    </trkpt>
    <trkpt lat="43.309436" lon="-1.632715">
      <ele>842</ele>
      <time>2025-12-29T11:00:03.000Z</time>
    </trkpt>
    <trkpt lat="43.309467" lon="-1.6324">
      <ele>834</ele>
      <time>2025-12-29T11:00:26.000Z</time>
    </trkpt>
    <trkpt lat="43.309588" lon="-1.63213">
      <ele>827</ele>
      <time>2025-12-29T11:00:51.000Z</time>
    </trkpt>
    <trkpt lat="43.309724" lon="-1.63188">
      <ele>817</ele>
      <time>2025-12-29T11:01:21.000Z</time>
    </trkpt>
    <trkpt lat="43.309872" lon="-1.631636">
      <ele>807</ele>
      <time>2025-12-29T11:01:53.000Z</time>
    </trkpt>
    <trkpt lat="43.310031" lon="-1.631406">
      <ele>796</ele>
      <time>2025-12-29T11:02:35.000Z</time>
    </trkpt>
    <trkpt lat="43.31026" lon="-1.631354">
      <ele>786</ele>
      <time>2025-12-29T11:03:03.000Z</time>
    </trkpt>
    <trkpt lat="43.310483" lon="-1.631293">
      <ele>773</ele>
      <time>2025-12-29T11:04:13.000Z</time>
    </trkpt>
    <trkpt lat="43.310715" lon="-1.631338">
      <ele>761</ele>
      <time>2025-12-29T11:05:00.000Z</time>
    </trkpt>
    <trkpt lat="43.310949" lon="-1.631294">
      <ele>751</ele>
      <time>2025-12-29T11:05:37.000Z</time>
    </trkpt>
    <trkpt lat="43.311084" lon="-1.631045">
      <ele>742</ele>
      <time>2025-12-29T11:09:33.000Z</time>
    </trkpt>
    <trkpt lat="43.311299" lon="-1.630951">
      <ele>729</ele>
      <time>2025-12-29T11:10:32.000Z</time>
    </trkpt>
    <trkpt lat="43.311502" lon="-1.631098">
      <ele>721</ele>
      <time>2025-12-29T11:11:11.000Z</time>
    </trkpt>
    <trkpt lat="43.311698" lon="-1.631255">
      <ele>711</ele>
      <time>2025-12-29T11:11:55.000Z</time>
    </trkpt>
    <trkpt lat="43.311927" lon="-1.631291">
      <ele>702</ele>
      <time>2025-12-29T11:12:44.000Z</time>
    </trkpt>
    <trkpt lat="43.312151" lon="-1.631366">
      <ele>693</ele>
      <time>2025-12-29T11:13:22.000Z</time>
    </trkpt>
    <trkpt lat="43.312332" lon="-1.63117">
      <ele>681</ele>
      <time>2025-12-29T11:13:58.000Z</time>
    </trkpt>
    <trkpt lat="43.31256" lon="-1.631196">
      <ele>671</ele>
      <time>2025-12-29T11:14:32.000Z</time>
    </trkpt>
    <trkpt lat="43.312799" lon="-1.631193">
      <ele>662</ele>
      <time>2025-12-29T11:15:06.000Z</time>
    </trkpt>
    <trkpt lat="43.313011" lon="-1.631326">
      <ele>654</ele>
      <time>2025-12-29T11:15:36.000Z</time>
    </trkpt>
    <trkpt lat="43.313222" lon="-1.631446">
      <ele>646</ele>
      <time>2025-12-29T11:16:11.000Z</time>
    </trkpt>
    <trkpt lat="43.313439" lon="-1.631544">
      <ele>639</ele>
      <time>2025-12-29T11:16:47.000Z</time>
    </trkpt>
    <trkpt lat="43.313668" lon="-1.631499">
      <ele>629</ele>
      <time>2025-12-29T11:21:11.000Z</time>
    </trkpt>
    <trkpt lat="43.3139" lon="-1.631486">
      <ele>626</ele>
      <time>2025-12-29T11:21:30.000Z</time>
    </trkpt>
    <trkpt lat="43.314107" lon="-1.631652">
      <ele>616</ele>
      <time>2025-12-29T11:22:02.000Z</time>
    </trkpt>
    <trkpt lat="43.314334" lon="-1.631732">
      <ele>611</ele>
      <time>2025-12-29T11:22:33.000Z</time>
    </trkpt>
    <trkpt lat="43.314486" lon="-1.631974">
      <ele>608</ele>
      <time>2025-12-29T11:22:53.000Z</time>
    </trkpt>
    <trkpt lat="43.314678" lon="-1.632148">
      <ele>603</ele>
      <time>2025-12-29T11:23:18.000Z</time>
    </trkpt>
    <trkpt lat="43.314889" lon="-1.632266">
      <ele>601</ele>
      <time>2025-12-29T11:23:43.000Z</time>
    </trkpt>
    <trkpt lat="43.315102" lon="-1.632393">
      <ele>598</ele>
      <time>2025-12-29T11:24:03.000Z</time>
    </trkpt>
    <trkpt lat="43.315318" lon="-1.632506">
      <ele>594</ele>
      <time>2025-12-29T11:24:25.000Z</time>
    </trkpt>
    <trkpt lat="43.315516" lon="-1.632653">
      <ele>589</ele>
      <time>2025-12-29T11:24:47.000Z</time>
    </trkpt>
    <trkpt lat="43.315712" lon="-1.632807">
      <ele>586</ele>
      <time>2025-12-29T11:25:19.000Z</time>
    </trkpt>
    <trkpt lat="43.315928" lon="-1.632927">
      <ele>585</ele>
      <time>2025-12-29T11:25:42.000Z</time>
    </trkpt>
    <trkpt lat="43.316153" lon="-1.632943">
      <ele>581</ele>
      <time>2025-12-29T11:26:12.000Z</time>
    </trkpt>
    <trkpt lat="43.316392" lon="-1.632967">
      <ele>578</ele>
      <time>2025-12-29T11:26:42.000Z</time>
    </trkpt>
    <trkpt lat="43.316626" lon="-1.632953">
      <ele>570</ele>
      <time>2025-12-29T11:27:17.000Z</time>
    </trkpt>
    <trkpt lat="43.316844" lon="-1.633063">
      <ele>565</ele>
      <time>2025-12-29T11:27:43.000Z</time>
    </trkpt>
    <trkpt lat="43.317077" lon="-1.633088">
      <ele>564</ele>
      <time>2025-12-29T11:28:04.000Z</time>
    </trkpt>
    <trkpt lat="43.317285" lon="-1.632958">
      <ele>564</ele>
      <time>2025-12-29T11:28:24.000Z</time>
    </trkpt>
    <trkpt lat="43.317511" lon="-1.63292">
      <ele>564</ele>
      <time>2025-12-29T11:28:44.000Z</time>
    </trkpt>
    <trkpt lat="43.31772" lon="-1.632782">
      <ele>563</ele>
      <time>2025-12-29T11:29:04.000Z</time>
    </trkpt>
    <trkpt lat="43.317949" lon="-1.63271">
      <ele>564</ele>
      <time>2025-12-29T11:29:26.000Z</time>
    </trkpt>
    <trkpt lat="43.318173" lon="-1.632651">
      <ele>564</ele>
      <time>2025-12-29T11:29:47.000Z</time>
    </trkpt>
    <trkpt lat="43.318399" lon="-1.632707">
      <ele>567</ele>
      <time>2025-12-29T11:30:07.000Z</time>
    </trkpt>
    <trkpt lat="43.3186" lon="-1.632869">
      <ele>563</ele>
      <time>2025-12-29T11:30:55.000Z</time>
    </trkpt>
    <trkpt lat="43.318704" lon="-1.633154">
      <ele>564</ele>
      <time>2025-12-29T11:31:18.000Z</time>
    </trkpt>
    <trkpt lat="43.318856" lon="-1.633388">
      <ele>563</ele>
      <time>2025-12-29T11:31:39.000Z</time>
    </trkpt>
    <trkpt lat="43.319008" lon="-1.633637">
      <ele>561</ele>
      <time>2025-12-29T11:32:02.000Z</time>
    </trkpt>
    <trkpt lat="43.319178" lon="-1.633861">
      <ele>561</ele>
      <time>2025-12-29T11:32:25.000Z</time>
    </trkpt>
    <trkpt lat="43.319221" lon="-1.634165">
      <ele>562</ele>
      <time>2025-12-29T11:32:42.000Z</time>
    </trkpt>
    <trkpt lat="43.319258" lon="-1.634478">
      <ele>563</ele>
      <time>2025-12-29T11:33:22.000Z</time>
    </trkpt>
    <trkpt lat="43.319395" lon="-1.634731">
      <ele>563</ele>
      <time>2025-12-29T11:33:43.000Z</time>
    </trkpt>
    <trkpt lat="43.31939" lon="-1.635049">
      <ele>566</ele>
      <time>2025-12-29T11:34:06.000Z</time>
    </trkpt>
    <trkpt lat="43.319447" lon="-1.63535">
      <ele>566</ele>
      <time>2025-12-29T11:34:28.000Z</time>
    </trkpt>
    <trkpt lat="43.319479" lon="-1.635663">
      <ele>565</ele>
      <time>2025-12-29T11:34:50.000Z</time>
    </trkpt>
    <trkpt lat="43.319508" lon="-1.635972">
      <ele>566</ele>
      <time>2025-12-29T11:35:13.000Z</time>
    </trkpt>
    <trkpt lat="43.319674" lon="-1.636182">
      <ele>566</ele>
      <time>2025-12-29T11:35:33.000Z</time>
    </trkpt>
    <trkpt lat="43.31985" lon="-1.636379">
      <ele>568</ele>
      <time>2025-12-29T11:35:52.000Z</time>
    </trkpt>
    <trkpt lat="43.319962" lon="-1.636655">
      <ele>565</ele>
      <time>2025-12-29T11:36:29.000Z</time>
    </trkpt>
    <trkpt lat="43.320089" lon="-1.636923">
      <ele>566</ele>
      <time>2025-12-29T11:36:49.000Z</time>
    </trkpt>
    <trkpt lat="43.32012" lon="-1.637246">
      <ele>563</ele>
      <time>2025-12-29T11:37:10.000Z</time>
    </trkpt>
    <trkpt lat="43.320182" lon="-1.637557">
      <ele>564</ele>
      <time>2025-12-29T11:37:28.000Z</time>
    </trkpt>
    <trkpt lat="43.3202" lon="-1.637883">
      <ele>566</ele>
      <time>2025-12-29T11:37:46.000Z</time>
    </trkpt>
    <trkpt lat="43.320219" lon="-1.638197">
      <ele>566</ele>
      <time>2025-12-29T11:38:06.000Z</time>
    </trkpt>
    <trkpt lat="43.320229" lon="-1.638514">
      <ele>565</ele>
      <time>2025-12-29T11:38:28.000Z</time>
    </trkpt>
    <trkpt lat="43.320284" lon="-1.638824">
      <ele>563</ele>
      <time>2025-12-29T11:38:50.000Z</time>
    </trkpt>
    <trkpt lat="43.320378" lon="-1.63911">
      <ele>562</ele>
      <time>2025-12-29T11:39:09.000Z</time>
    </trkpt>
    <trkpt lat="43.320491" lon="-1.63939">
      <ele>560</ele>
      <time>2025-12-29T11:39:28.000Z</time>
    </trkpt>
    <trkpt lat="43.320632" lon="-1.639646">
      <ele>560</ele>
      <time>2025-12-29T11:39:46.000Z</time>
    </trkpt>
    <trkpt lat="43.320754" lon="-1.639917">
      <ele>560</ele>
      <time>2025-12-29T11:40:04.000Z</time>
    </trkpt>
    <trkpt lat="43.320879" lon="-1.640183">
      <ele>558</ele>
      <time>2025-12-29T11:40:26.000Z</time>
    </trkpt>
    <trkpt lat="43.321031" lon="-1.640423">
      <ele>556</ele>
      <time>2025-12-29T11:40:46.000Z</time>
    </trkpt>
    <trkpt lat="43.321218" lon="-1.640603">
      <ele>555</ele>
      <time>2025-12-29T11:41:05.000Z</time>
    </trkpt>
    <trkpt lat="43.321423" lon="-1.640773">
      <ele>554</ele>
      <time>2025-12-29T11:41:58.000Z</time>
    </trkpt>
    <trkpt lat="43.321602" lon="-1.640962">
      <ele>556</ele>
      <time>2025-12-29T11:42:13.000Z</time>
    </trkpt>
    <trkpt lat="43.321812" lon="-1.641116">
      <ele>551</ele>
      <time>2025-12-29T11:42:36.000Z</time>
    </trkpt>
    <trkpt lat="43.322046" lon="-1.641166">
      <ele>548</ele>
      <time>2025-12-29T11:42:55.000Z</time>
    </trkpt>
    <trkpt lat="43.322273" lon="-1.641198">
      <ele>547</ele>
      <time>2025-12-29T11:43:14.000Z</time>
    </trkpt>
    <trkpt lat="43.322499" lon="-1.641198">
      <ele>545</ele>
      <time>2025-12-29T11:44:25.000Z</time>
    </trkpt>
    <trkpt lat="43.322679" lon="-1.641396">
      <ele>546</ele>
      <time>2025-12-29T12:12:42.000Z</time>
    </trkpt>
    <trkpt lat="43.322878" lon="-1.641545">
      <ele>535</ele>
      <time>2025-12-29T12:13:52.000Z</time>
    </trkpt>
    <trkpt lat="43.323064" lon="-1.641724">
      <ele>525</ele>
      <time>2025-12-29T12:15:00.000Z</time>
    </trkpt>
    <trkpt lat="43.323141" lon="-1.642024">
      <ele>509</ele>
      <time>2025-12-29T12:16:14.000Z</time>
    </trkpt>
    <trkpt lat="43.323173" lon="-1.64233">
      <ele>498</ele>
      <time>2025-12-29T12:17:33.000Z</time>
    </trkpt>
    <trkpt lat="43.323178" lon="-1.642648">
      <ele>488</ele>
      <time>2025-12-29T12:18:14.000Z</time>
    </trkpt>
    <trkpt lat="43.32333" lon="-1.642878">
      <ele>475</ele>
      <time>2025-12-29T12:19:06.000Z</time>
    </trkpt>
    <trkpt lat="43.323545" lon="-1.642983">
      <ele>462</ele>
      <time>2025-12-29T12:19:58.000Z</time>
    </trkpt>
    <trkpt lat="43.323546" lon="-1.643292">
      <ele>455</ele>
      <time>2025-12-29T12:20:26.000Z</time>
    </trkpt>
    <trkpt lat="43.323769" lon="-1.643342">
      <ele>445</ele>
      <time>2025-12-29T12:20:58.000Z</time>
    </trkpt>
    <trkpt lat="43.3238" lon="-1.643655">
      <ele>434</ele>
      <time>2025-12-29T12:21:40.000Z</time>
    </trkpt>
    <trkpt lat="43.323917" lon="-1.643926">
      <ele>420</ele>
      <time>2025-12-29T12:22:29.000Z</time>
    </trkpt>
    <trkpt lat="43.323964" lon="-1.644234">
      <ele>414</ele>
      <time>2025-12-29T12:22:52.000Z</time>
    </trkpt>
    <trkpt lat="43.32404" lon="-1.644535">
      <ele>408</ele>
      <time>2025-12-29T12:24:02.000Z</time>
    </trkpt>
    <trkpt lat="43.324091" lon="-1.644837">
      <ele>398</ele>
      <time>2025-12-29T12:24:28.000Z</time>
    </trkpt>
    <trkpt lat="43.324049" lon="-1.645151">
      <ele>388</ele>
      <time>2025-12-29T12:24:56.000Z</time>
    </trkpt>
    <trkpt lat="43.324054" lon="-1.645461">
      <ele>380</ele>
      <time>2025-12-29T12:25:24.000Z</time>
    </trkpt>
    <trkpt lat="43.324162" lon="-1.64575">
      <ele>371</ele>
      <time>2025-12-29T12:26:39.000Z</time>
    </trkpt>
    <trkpt lat="43.3242" lon="-1.646054">
      <ele>363</ele>
      <time>2025-12-29T12:27:05.000Z</time>
    </trkpt>
    <trkpt lat="43.324357" lon="-1.646282">
      <ele>355</ele>
      <time>2025-12-29T12:27:32.000Z</time>
    </trkpt>
    <trkpt lat="43.32436" lon="-1.646608">
      <ele>347</ele>
      <time>2025-12-29T12:28:01.000Z</time>
    </trkpt>
    <trkpt lat="43.324454" lon="-1.646898">
      <ele>342</ele>
      <time>2025-12-29T12:28:22.000Z</time>
    </trkpt>
    <trkpt lat="43.324567" lon="-1.64717">
      <ele>337</ele>
      <time>2025-12-29T12:28:46.000Z</time>
    </trkpt>
    <trkpt lat="43.32469" lon="-1.64743">
      <ele>333</ele>
      <time>2025-12-29T12:29:13.000Z</time>
    </trkpt>
    <trkpt lat="43.324672" lon="-1.647744">
      <ele>330</ele>
      <time>2025-12-29T12:29:36.000Z</time>
    </trkpt>
    <trkpt lat="43.324826" lon="-1.647969">
      <ele>325</ele>
      <time>2025-12-29T12:30:04.000Z</time>
    </trkpt>
    <trkpt lat="43.325002" lon="-1.648184">
      <ele>318</ele>
      <time>2025-12-29T12:30:39.000Z</time>
    </trkpt>
    <trkpt lat="43.325178" lon="-1.648388">
      <ele>310</ele>
      <time>2025-12-29T12:31:13.000Z</time>
    </trkpt>
    <trkpt lat="43.325261" lon="-1.648677">
      <ele>302</ele>
      <time>2025-12-29T12:31:39.000Z</time>
    </trkpt>
    <trkpt lat="43.32534" lon="-1.648977">
      <ele>296</ele>
      <time>2025-12-29T12:32:04.000Z</time>
    </trkpt>
    <trkpt lat="43.325449" lon="-1.649252">
      <ele>290</ele>
      <time>2025-12-29T12:32:27.000Z</time>
    </trkpt>
    <trkpt lat="43.325651" lon="-1.649407">
      <ele>288</ele>
      <time>2025-12-29T12:32:42.000Z</time>
    </trkpt>
    <trkpt lat="43.325812" lon="-1.649627">
      <ele>282</ele>
      <time>2025-12-29T12:33:10.000Z</time>
    </trkpt>
    <trkpt lat="43.325896" lon="-1.649914">
      <ele>274</ele>
      <time>2025-12-29T12:33:39.000Z</time>
    </trkpt>
    <trkpt lat="43.325999" lon="-1.650204">
      <ele>267</ele>
      <time>2025-12-29T12:34:13.000Z</time>
    </trkpt>
    <trkpt lat="43.326114" lon="-1.650493">
      <ele>263</ele>
      <time>2025-12-29T12:34:31.000Z</time>
    </trkpt>
    <trkpt lat="43.32628" lon="-1.650726">
      <ele>254</ele>
      <time>2025-12-29T12:35:12.000Z</time>
    </trkpt>
    <trkpt lat="43.326419" lon="-1.650972">
      <ele>249</ele>
      <time>2025-12-29T12:35:39.000Z</time>
    </trkpt>
    <trkpt lat="43.326533" lon="-1.651244">
      <ele>245</ele>
      <time>2025-12-29T12:35:58.000Z</time>
    </trkpt>
    <trkpt lat="43.326684" lon="-1.651482">
      <ele>244</ele>
      <time>2025-12-29T12:39:32.000Z</time>
    </trkpt>
    <trkpt lat="43.326851" lon="-1.651701">
      <ele>250</ele>
      <time>2025-12-29T12:39:59.000Z</time>
    </trkpt>
    <trkpt lat="43.326989" lon="-1.65195">
      <ele>251</ele>
      <time>2025-12-29T12:40:27.000Z</time>
    </trkpt>
    <trkpt lat="43.326968" lon="-1.652268">
      <ele>253</ele>
      <time>2025-12-29T12:40:48.000Z</time>
    </trkpt>
    <trkpt lat="43.327044" lon="-1.652567">
      <ele>251</ele>
      <time>2025-12-29T12:41:22.000Z</time>
    </trkpt>
    <trkpt lat="43.327073" lon="-1.652878">
      <ele>251</ele>
      <time>2025-12-29T12:41:41.000Z</time>
    </trkpt>
    <trkpt lat="43.327062" lon="-1.653207">
      <ele>251</ele>
      <time>2025-12-29T12:42:00.000Z</time>
    </trkpt>
    <trkpt lat="43.327119" lon="-1.653514">
      <ele>247</ele>
      <time>2025-12-29T12:42:20.000Z</time>
    </trkpt>
    <trkpt lat="43.327173" lon="-1.653817">
      <ele>240</ele>
      <time>2025-12-29T12:42:44.000Z</time>
    </trkpt>
    <trkpt lat="43.327261" lon="-1.654102">
      <ele>233</ele>
      <time>2025-12-29T12:43:08.000Z</time>
    </trkpt>
    <trkpt lat="43.327377" lon="-1.654371">
      <ele>226</ele>
      <time>2025-12-29T12:43:33.000Z</time>
    </trkpt>
    <trkpt lat="43.327454" lon="-1.654671">
      <ele>221</ele>
      <time>2025-12-29T12:44:03.000Z</time>
    </trkpt>
    <trkpt lat="43.327541" lon="-1.654967">
      <ele>215</ele>
      <time>2025-12-29T12:44:32.000Z</time>
    </trkpt>
    <trkpt lat="43.327619" lon="-1.655269">
      <ele>209</ele>
      <time>2025-12-29T12:45:03.000Z</time>
    </trkpt>
    <trkpt lat="43.327711" lon="-1.655563">
      <ele>206</ele>
      <time>2025-12-29T12:47:21.000Z</time>
    </trkpt>
    <trkpt lat="43.327773" lon="-1.655864">
      <ele>204</ele>
      <time>2025-12-29T12:47:41.000Z</time>
    </trkpt>
    <trkpt lat="43.327815" lon="-1.656169">
      <ele>203</ele>
      <time>2025-12-29T12:48:03.000Z</time>
    </trkpt>
    <trkpt lat="43.327893" lon="-1.656476">
      <ele>197</ele>
      <time>2025-12-29T12:48:28.000Z</time>
    </trkpt>
    <trkpt lat="43.32797" lon="-1.656778">
      <ele>182</ele>
      <time>2025-12-29T12:49:12.000Z</time>
    </trkpt>
    <trkpt lat="43.328023" lon="-1.657085">
      <ele>174</ele>
      <time>2025-12-29T12:49:48.000Z</time>
    </trkpt>
    <trkpt lat="43.32812" lon="-1.657383">
      <ele>166</ele>
      <time>2025-12-29T12:50:27.000Z</time>
    </trkpt>
    <trkpt lat="43.328247" lon="-1.657646">
      <ele>153</ele>
      <time>2025-12-29T12:51:12.000Z</time>
    </trkpt>
    <trkpt lat="43.328457" lon="-1.657797">
      <ele>148</ele>
      <time>2025-12-29T12:51:44.000Z</time>
    </trkpt>
    <trkpt lat="43.32861" lon="-1.658026">
      <ele>140</ele>
      <time>2025-12-29T12:52:37.000Z</time>
    </trkpt>
    <trkpt lat="43.328833" lon="-1.658123">
      <ele>134</ele>
      <time>2025-12-29T12:53:50.000Z</time>
    </trkpt>
    <trkpt lat="43.329044" lon="-1.658262">
      <ele>128</ele>
      <time>2025-12-29T12:54:16.000Z</time>
    </trkpt>
    <trkpt lat="43.32926" lon="-1.658368">
      <ele>120</ele>
      <time>2025-12-29T12:54:44.000Z</time>
    </trkpt>
    <trkpt lat="43.329404" lon="-1.658622">
      <ele>112</ele>
      <time>2025-12-29T12:55:21.000Z</time>
    </trkpt>
    <trkpt lat="43.329612" lon="-1.658771">
      <ele>111</ele>
      <time>2025-12-29T12:55:33.000Z</time>
    </trkpt>
    <trkpt lat="43.329811" lon="-1.658924">
      <ele>110</ele>
      <time>2025-12-29T12:55:53.000Z</time>
    </trkpt>
    <trkpt lat="43.330026" lon="-1.659025">
      <ele>110</ele>
      <time>2025-12-29T12:56:20.000Z</time>
    </trkpt>
    <trkpt lat="43.330269" lon="-1.659051">
      <ele>108</ele>
      <time>2025-12-29T12:56:35.000Z</time>
    </trkpt>
    <trkpt lat="43.33049" lon="-1.65918">
      <ele>104</ele>
      <time>2025-12-29T12:56:55.000Z</time>
    </trkpt>
    <trkpt lat="43.330721" lon="-1.659257">
      <ele>103</ele>
      <time>2025-12-29T12:57:13.000Z</time>
    </trkpt>
    <trkpt lat="43.330948" lon="-1.659252">
      <ele>102</ele>
      <time>2025-12-29T12:57:35.000Z</time>
    </trkpt>
    <trkpt lat="43.330999" lon="-1.659572">
      <ele>99</ele>
      <time>2025-12-29T12:57:57.000Z</time>
    </trkpt>
    <trkpt lat="43.331226" lon="-1.659524">
      <ele>101</ele>
      <time>2025-12-29T12:59:27.000Z</time>
    </trkpt>
    <trkpt lat="43.331456" lon="-1.659454">
      <ele>100</ele>
      <time>2025-12-29T12:59:46.000Z</time>
    </trkpt>
    <trkpt lat="43.331671" lon="-1.659328">
      <ele>99</ele>
      <time>2025-12-29T13:00:06.000Z</time>
    </trkpt>
    <trkpt lat="43.33186" lon="-1.659494">
      <ele>94</ele>
      <time>2025-12-29T13:00:25.000Z</time>
    </trkpt>
    <trkpt lat="43.331975" lon="-1.659761">
      <ele>93</ele>
      <time>2025-12-29T13:01:37.000Z</time>
    </trkpt>
    <trkpt lat="43.332153" lon="-1.659968">
      <ele>95</ele>
      <time>2025-12-29T13:01:56.000Z</time>
    </trkpt>
    <trkpt lat="43.332317" lon="-1.660188">
      <ele>95</ele>
      <time>2025-12-29T13:02:15.000Z</time>
    </trkpt>
    <trkpt lat="43.332545" lon="-1.660269">
      <ele>94</ele>
      <time>2025-12-29T13:02:33.000Z</time>
    </trkpt>
    <trkpt lat="43.332768" lon="-1.660322">
      <ele>93</ele>
      <time>2025-12-29T13:02:52.000Z</time>
    </trkpt>
    <trkpt lat="43.333" lon="-1.660349">
      <ele>91</ele>
      <time>2025-12-29T13:03:10.000Z</time>
    </trkpt>
    <trkpt lat="43.333229" lon="-1.660372">
      <ele>88</ele>
      <time>2025-12-29T13:03:27.000Z</time>
    </trkpt>
    <trkpt lat="43.333466" lon="-1.66041">
      <ele>87</ele>
      <time>2025-12-29T13:03:44.000Z</time>
    </trkpt>
    <trkpt lat="43.333697" lon="-1.660428">
      <ele>87</ele>
      <time>2025-12-29T13:04:01.000Z</time>
    </trkpt>
    <trkpt lat="43.333925" lon="-1.660444">
      <ele>87</ele>
      <time>2025-12-29T13:04:16.000Z</time>
    </trkpt>
    <trkpt lat="43.334158" lon="-1.660428">
      <ele>87</ele>
      <time>2025-12-29T13:04:32.000Z</time>
    </trkpt>
    <trkpt lat="43.334385" lon="-1.660394">
      <ele>83</ele>
      <time>2025-12-29T13:04:49.000Z</time>
    </trkpt>
    <trkpt lat="43.334613" lon="-1.660352">
      <ele>82</ele>
      <time>2025-12-29T13:05:05.000Z</time>
    </trkpt>
    <trkpt lat="43.334839" lon="-1.660347">
      <ele>81</ele>
      <time>2025-12-29T13:05:22.000Z</time>
    </trkpt>
    <trkpt lat="43.335071" lon="-1.660335">
      <ele>78</ele>
      <time>2025-12-29T13:05:39.000Z</time>
    </trkpt>
    <trkpt lat="43.335302" lon="-1.660331">
      <ele>77</ele>
      <time>2025-12-29T13:05:56.000Z</time>
    </trkpt>
    <trkpt lat="43.335529" lon="-1.660308">
      <ele>76</ele>
      <time>2025-12-29T13:06:12.000Z</time>
    </trkpt>
    <trkpt lat="43.335763" lon="-1.660305">
      <ele>75</ele>
      <time>2025-12-29T13:06:29.000Z</time>
    </trkpt>
    <trkpt lat="43.336003" lon="-1.660304">
      <ele>71</ele>
      <time>2025-12-29T13:06:47.000Z</time>
    </trkpt>
    <trkpt lat="43.33623" lon="-1.660305">
      <ele>69</ele>
      <time>2025-12-29T13:07:02.000Z</time>
    </trkpt>
    <trkpt lat="43.336458" lon="-1.660267">
      <ele>69</ele>
      <time>2025-12-29T13:07:18.000Z</time>
    </trkpt>
    <trkpt lat="43.336681" lon="-1.660211">
      <ele>67</ele>
      <time>2025-12-29T13:07:35.000Z</time>
    </trkpt>
    <trkpt lat="43.336683" lon="-1.660533">
      <ele>66</ele>
      <time>2025-12-29T13:07:55.000Z</time>
    </trkpt>
    <trkpt lat="43.336632" lon="-1.660837">
      <ele>65</ele>
      <time>2025-12-29T13:08:12.000Z</time>
    </trkpt>
    <trkpt lat="43.336575" lon="-1.661139">
      <ele>64</ele>
      <time>2025-12-29T13:08:29.000Z</time>
    </trkpt>
    <trkpt lat="43.336494" lon="-1.661451">
      <ele>62</ele>
      <time>2025-12-29T13:08:47.000Z</time>
    </trkpt>
    <trkpt lat="43.336402" lon="-1.661748">
      <ele>61</ele>
      <time>2025-12-29T13:09:05.000Z</time>
    </trkpt>
    <trkpt lat="43.33632" lon="-1.662043">
      <ele>59</ele>
      <time>2025-12-29T13:09:23.000Z</time>
    </trkpt>
    <trkpt lat="43.336199" lon="-1.662322">
      <ele>57</ele>
      <time>2025-12-29T13:09:42.000Z</time>
    </trkpt>
    <trkpt lat="43.336126" lon="-1.662627">
      <ele>57</ele>
      <time>2025-12-29T13:09:58.000Z</time>
    </trkpt>
    <trkpt lat="43.336091" lon="-1.66295">
      <ele>56</ele>
      <time>2025-12-29T13:10:15.000Z</time>
    </trkpt>
    <trkpt lat="43.336075" lon="-1.663286">
      <ele>55</ele>
      <time>2025-12-29T13:10:33.000Z</time>
    </trkpt>
    <trkpt lat="43.336076" lon="-1.663602">
      <ele>53</ele>
      <time>2025-12-29T13:10:50.000Z</time>
    </trkpt>
    <trkpt lat="43.336099" lon="-1.663917">
      <ele>52</ele>
      <time>2025-12-29T13:11:06.000Z</time>
    </trkpt>
    <trkpt lat="43.336175" lon="-1.664225">
      <ele>51</ele>
      <time>2025-12-29T13:11:23.000Z</time>
    </trkpt>
    <trkpt lat="43.336259" lon="-1.664512">
      <ele>50</ele>
      <time>2025-12-29T13:11:39.000Z</time>
    </trkpt>
    <trkpt lat="43.336367" lon="-1.664798">
      <ele>49</ele>
      <time>2025-12-29T13:11:56.000Z</time>
    </trkpt>
    <trkpt lat="43.336473" lon="-1.665083">
      <ele>48</ele>
      <time>2025-12-29T13:12:12.000Z</time>
    </trkpt>
    <trkpt lat="43.336567" lon="-1.665368">
      <ele>47</ele>
      <time>2025-12-29T13:12:29.000Z</time>
    </trkpt>
    <trkpt lat="43.33665" lon="-1.665659">
      <ele>45</ele>
      <time>2025-12-29T13:12:46.000Z</time>
    </trkpt>
    <trkpt lat="43.336682" lon="-1.665981">
      <ele>44</ele>
      <time>2025-12-29T13:13:03.000Z</time>
    </trkpt>
    <trkpt lat="43.336686" lon="-1.666294">
      <ele>44</ele>
      <time>2025-12-29T13:13:18.000Z</time>
    </trkpt>
    <trkpt lat="43.336641" lon="-1.666617">
      <ele>44</ele>
      <time>2025-12-29T13:13:36.000Z</time>
    </trkpt>
    <trkpt lat="43.336578" lon="-1.666921">
      <ele>43</ele>
      <time>2025-12-29T13:13:53.000Z</time>
    </trkpt>
    <trkpt lat="43.336516" lon="-1.667237">
      <ele>43</ele>
      <time>2025-12-29T13:14:10.000Z</time>
    </trkpt>
    <trkpt lat="43.336382" lon="-1.667492">
      <ele>41</ele>
      <time>2025-12-29T13:14:27.000Z</time>
    </trkpt>
    <trkpt lat="43.336179" lon="-1.66766">
      <ele>41</ele>
      <time>2025-12-29T13:14:44.000Z</time>
    </trkpt>
    <trkpt lat="43.33595" lon="-1.667747">
      <ele>40</ele>
      <time>2025-12-29T13:15:00.000Z</time>
    </trkpt>
    <trkpt lat="43.335729" lon="-1.667832">
      <ele>41</ele>
      <time>2025-12-29T13:15:17.000Z</time>
    </trkpt>
    <trkpt lat="43.335499" lon="-1.667885">
      <ele>43</ele>
      <time>2025-12-29T13:15:34.000Z</time>
    </trkpt>
    <trkpt lat="43.335276" lon="-1.667833">
      <ele>44</ele>
      <time>2025-12-29T13:15:53.000Z</time>
    </trkpt>
    <trkpt lat="43.335057" lon="-1.667913">
      <ele>44</ele>
      <time>2025-12-29T13:16:20.000Z</time>
    </trkpt>
    <trkpt lat="43.334837" lon="-1.667829">
      <ele>47</ele>
      <time>2025-12-29T13:16:40.000Z</time>
    </trkpt>
  </trkseg>
</trk></gpx>